Amsterdam, OH

11:51 AM EDT on July 06, 2015 (GMT -0400)
Sunset Gardens | | Change Station
CLOSE
Current Station
Personal Weather Station
Location: Wintersville, OH
Elevation: 1150 ft
Nearby Weather Stations

Elev 1150 ft 40.38 °N, 80.72 °W | Updated 47 seconds ago

Overcast
Overcast
75.6 °F
Feels Like 76 °F
N
0.0
Wind Variable Wind from East
Gusts 0.0 mph

Today
High -- | Low -- °F
--% Chance of Precip.
Yesterday
High -- | Low -- °F
Precip. -- in
5:59 AM 8:57 PM
Waning Gibbous, 74% visible
Pressure 30.08 in
Visibility 5.0 miles
Clouds Mostly Cloudy 5500 ft
Mostly Cloudy 8500 ft
Heat Index 76 °F
Dew Point 71 °F
Humidity 86%
Rainfall 0.00 in
Snow Depth Not available.
UV 4 out of 12
Pollen .50 out of 12
Air Quality Not available.
Flu Activity Not available.
METAR KPHD 061453Z AUTO 00000KT 5SM BR BKN055 BKN085 23/21 A3009 RMK AO2 SLP184 60014 T02280206 58000

More Conditions Fewer Conditions

Pressure 30.08 in
Visibility 5.0 miles
Clouds Mostly Cloudy 5500 ft
Mostly Cloudy 8500 ft
Heat Index 76 °F
Dew Point 71 °F
Humidity 86%
Rainfall 0.00 in
Snow Depth Not available.
UV 4 out of 12
Pollen .50 out of 12
Air Quality Not available.
Flu Activity Not available.
METAR KPHD 061453Z AUTO 00000KT 5SM BR BKN055 BKN085 23/21 A3009 RMK AO2 SLP184 60014 T02280206 58000

More Conditions Fewer Conditions

10-Day Weather Forecast

×

Almanac

Astronomy

Jul. 06, 2015 Rise Set
Actual Time
Civil Twilight
Nautical Twilight
Astronomical Twilight
Moon
Length of Visible Light
Length of Day
Tomorrow will be .
, % of the Moon is Illuminated

Today's Extremes

State Highs State Lows

Community

WunderPhotos

Upload Photos

1,835,576 photos uploaded!

WunderBlogs® & News

Nearby

Air Quality

  Air Quality AQ Index Pollutant
Not available.

Snow Depth

Station Depth Elevation

Earthquake Activity

City Distance Mag. Time & Date
Minimum magnitude displayed is 2.5.

Coastal Water Temperatures

Place Temperature

Stations

Nearby Weather Stations

Station Location Temp. Windchill Dew Point Humidity Wind Precip. Elev Updated Type